sensor_id;sensor_type;location;lat;lon;timestamp;P1;durP1;ratioP1;P2;durP2;ratioP2
78799;SDS011;68148;55.328;86.106;2023-04-03T00:00:44;7.90;;;1.85;;
78799;SDS011;68148;55.328;86.106;2023-04-03T00:09:35;14.88;;;2.72;;
78799;SDS011;68148;55.328;86.106;2023-04-03T00:14:53;0.63;;;0.22;;
78799;SDS011;68148;55.328;86.106;2023-04-03T00:17:21;8.95;;;1.60;;
78799;SDS011;68148;55.328;86.106;2023-04-03T00:20:08;2.17;;;0.75;;
78799;SDS011;68148;55.328;86.106;2023-04-03T00:23:19;6.72;;;1.60;;
78799;SDS011;68148;55.328;86.106;2023-04-03T00:25:45;3.88;;;1.38;;
78799;SDS011;68148;55.328;86.106;2023-04-03T00:28:11;4.70;;;1.55;;
78799;SDS011;68148;55.328;86.106;2023-04-03T00:30:40;4.57;;;1.50;;
78799;SDS011;68148;55.328;86.106;2023-04-03T00:33:06;21.55;;;3.30;;
78799;SDS011;68148;55.328;86.106;2023-04-03T00:35:33;3.20;;;1.17;;
78799;SDS011;68148;55.328;86.106;2023-04-03T00:38:00;7.05;;;2.95;;
78799;SDS011;68148;55.328;86.106;2023-04-03T00:40:39;2.58;;;1.60;;
78799;SDS011;68148;55.328;86.106;2023-04-03T00:43:13;4.28;;;1.08;;
78799;SDS011;68148;55.328;86.106;2023-04-03T00:45:51;10.80;;;1.67;;
78799;SDS011;68148;55.328;86.106;2023-04-03T00:48:20;6.72;;;1.38;;
78799;SDS011;68148;55.328;86.106;2023-04-03T00:50:50;4.72;;;1.23;;
78799;SDS011;68148;55.328;86.106;2023-04-03T00:53:20;4.40;;;1.55;;
78799;SDS011;68148;55.328;86.106;2023-04-03T00:55:55;4.90;;;2.08;;
78799;SDS011;68148;55.328;86.106;2023-04-03T00:58:41;5.18;;;1.60;;
78799;SDS011;68148;55.328;86.106;2023-04-03T01:01:18;8.02;;;1.38;;
78799;SDS011;68148;55.328;86.106;2023-04-03T01:07:06;4.78;;;0.95;;
78799;SDS011;68148;55.328;86.106;2023-04-03T01:13:21;10.13;;;1.25;;
78799;SDS011;68148;55.328;86.106;2023-04-03T01:15:49;9.43;;;1.10;;
78799;SDS011;68148;55.328;86.106;2023-04-03T01:18:18;7.05;;;1.13;;
78799;SDS011;68148;55.328;86.106;2023-04-03T01:23:25;2.75;;;1.30;;
78799;SDS011;68148;55.328;86.106;2023-04-03T01:26:00;2.22;;;1.02;;
78799;SDS011;68148;55.328;86.106;2023-04-03T01:28:28;9.98;;;1.90;;
78799;SDS011;68148;55.328;86.106;2023-04-03T01:33:46;1.80;;;1.10;;
78799;SDS011;68148;55.328;86.106;2023-04-03T01:36:19;4.57;;;0.85;;
78799;SDS011;68148;55.328;86.106;2023-04-03T01:38:48;12.35;;;2.28;;
78799;SDS011;68148;55.328;86.106;2023-04-03T01:41:14;3.97;;;1.00;;
78799;SDS011;68148;55.328;86.106;2023-04-03T01:43:40;7.85;;;2.38;;
78799;SDS011;68148;55.328;86.106;2023-04-03T01:46:06;9.65;;;0.80;;
78799;SDS011;68148;55.328;86.106;2023-04-03T01:48:32;10.25;;;1.55;;
78799;SDS011;68148;55.328;86.106;2023-04-03T01:50:57;2.70;;;0.90;;
78799;SDS011;68148;55.328;86.106;2023-04-03T01:53:24;9.30;;;2.45;;
78799;SDS011;68148;55.328;86.106;2023-04-03T01:55:50;8.65;;;1.45;;
78799;SDS011;68148;55.328;86.106;2023-04-03T01:58:15;9.27;;;1.60;;
78799;SDS011;68148;55.328;86.106;2023-04-03T02:00:41;7.20;;;1.08;;
78799;SDS011;68148;55.328;86.106;2023-04-03T02:03:09;5.60;;;0.82;;
78799;SDS011;68148;55.328;86.106;2023-04-03T02:05:35;4.80;;;0.90;;
78799;SDS011;68148;55.328;86.106;2023-04-03T02:08:01;6.45;;;0.93;;
78799;SDS011;68148;55.328;86.106;2023-04-03T02:10:26;3.42;;;1.67;;
78799;SDS011;68148;55.328;86.106;2023-04-03T02:12:52;8.52;;;1.48;;
78799;SDS011;68148;55.328;86.106;2023-04-03T02:15:18;3.63;;;1.08;;
78799;SDS011;68148;55.328;86.106;2023-04-03T02:17:45;13.80;;;1.27;;
78799;SDS011;68148;55.328;86.106;2023-04-03T02:20:11;10.38;;;1.20;;
78799;SDS011;68148;55.328;86.106;2023-04-03T02:22:37;9.70;;;1.40;;
78799;SDS011;68148;55.328;86.106;2023-04-03T02:25:04;8.50;;;1.52;;
78799;SDS011;68148;55.328;86.106;2023-04-03T02:27:30;10.18;;;1.88;;
78799;SDS011;68148;55.328;86.106;2023-04-03T02:29:56;18.17;;;2.08;;
78799;SDS011;68148;55.328;86.106;2023-04-03T02:32:22;8.65;;;1.88;;
78799;SDS011;68148;55.328;86.106;2023-04-03T02:34:48;11.27;;;1.65;;
78799;SDS011;68148;55.328;86.106;2023-04-03T02:37:14;8.75;;;1.70;;
78799;SDS011;68148;55.328;86.106;2023-04-03T02:39:40;5.10;;;2.97;;
78799;SDS011;68148;55.328;86.106;2023-04-03T02:42:05;15.35;;;1.83;;
78799;SDS011;68148;55.328;86.106;2023-04-03T02:44:32;9.43;;;1.42;;
78799;SDS011;68148;55.328;86.106;2023-04-03T02:46:58;7.65;;;1.48;;
78799;SDS011;68148;55.328;86.106;2023-04-03T02:49:24;5.90;;;1.35;;
78799;SDS011;68148;55.328;86.106;2023-04-03T02:51:50;5.38;;;1.45;;
78799;SDS011;68148;55.328;86.106;2023-04-03T02:54:19;6.28;;;0.98;;
78799;SDS011;68148;55.328;86.106;2023-04-03T02:56:45;4.63;;;1.90;;
78799;SDS011;68148;55.328;86.106;2023-04-03T02:59:11;14.93;;;1.42;;
78799;SDS011;68148;55.328;86.106;2023-04-03T03:01:37;12.02;;;1.88;;
78799;SDS011;68148;55.328;86.106;2023-04-03T03:04:03;13.35;;;1.98;;
78799;SDS011;68148;55.328;86.106;2023-04-03T03:06:29;7.65;;;1.52;;
78799;SDS011;68148;55.328;86.106;2023-04-03T03:08:55;4.80;;;1.08;;
78799;SDS011;68148;55.328;86.106;2023-04-03T03:11:21;9.35;;;2.28;;
78799;SDS011;68148;55.328;86.106;2023-04-03T03:13:47;5.88;;;1.25;;
78799;SDS011;68148;55.328;86.106;2023-04-03T03:16:13;9.25;;;1.55;;
78799;SDS011;68148;55.328;86.106;2023-04-03T03:18:45;10.40;;;1.85;;
78799;SDS011;68148;55.328;86.106;2023-04-03T03:21:11;7.57;;;1.52;;
78799;SDS011;68148;55.328;86.106;2023-04-03T03:23:36;10.55;;;1.90;;
78799;SDS011;68148;55.328;86.106;2023-04-03T03:26:04;9.68;;;1.85;;
78799;SDS011;68148;55.328;86.106;2023-04-03T03:28:31;13.40;;;2.03;;
78799;SDS011;68148;55.328;86.106;2023-04-03T03:30:58;15.82;;;2.28;;
78799;SDS011;68148;55.328;86.106;2023-04-03T03:33:25;22.83;;;1.85;;
78799;SDS011;68148;55.328;86.106;2023-04-03T03:35:52;2.42;;;0.95;;
78799;SDS011;68148;55.328;86.106;2023-04-03T03:38:18;8.93;;;1.20;;
78799;SDS011;68148;55.328;86.106;2023-04-03T03:40:46;7.25;;;1.15;;
78799;SDS011;68148;55.328;86.106;2023-04-03T03:43:12;3.65;;;1.48;;
78799;SDS011;68148;55.328;86.106;2023-04-03T03:45:41;18.80;;;2.08;;
78799;SDS011;68148;55.328;86.106;2023-04-03T03:48:07;14.63;;;1.60;;
78799;SDS011;68148;55.328;86.106;2023-04-03T03:50:33;3.42;;;1.30;;
78799;SDS011;68148;55.328;86.106;2023-04-03T03:52:59;14.07;;;1.83;;
78799;SDS011;68148;55.328;86.106;2023-04-03T03:55:26;12.25;;;1.65;;
78799;SDS011;68148;55.328;86.106;2023-04-03T03:57:52;1.73;;;0.70;;
78799;SDS011;68148;55.328;86.106;2023-04-03T04:00:18;2.45;;;0.88;;
78799;SDS011;68148;55.328;86.106;2023-04-03T04:02:44;9.52;;;1.67;;
78799;SDS011;68148;55.328;86.106;2023-04-03T04:05:10;3.35;;;1.25;;
78799;SDS011;68148;55.328;86.106;2023-04-03T04:07:36;3.38;;;1.10;;
78799;SDS011;68148;55.328;86.106;2023-04-03T04:10:02;0.55;;;0.22;;
78799;SDS011;68148;55.328;86.106;2023-04-03T04:12:29;1.92;;;0.80;;
78799;SDS011;68148;55.328;86.106;2023-04-03T04:14:55;11.35;;;1.02;;
78799;SDS011;68148;55.328;86.106;2023-04-03T04:17:23;15.88;;;1.40;;
78799;SDS011;68148;55.328;86.106;2023-04-03T04:22:15;4.88;;;1.52;;
78799;SDS011;68148;55.328;86.106;2023-04-03T04:27:18;12.55;;;1.65;;
78799;SDS011;68148;55.328;86.106;2023-04-03T04:29:47;10.00;;;1.73;;
78799;SDS011;68148;55.328;86.106;2023-04-03T04:32:15;5.97;;;0.93;;
78799;SDS011;68148;55.328;86.106;2023-04-03T04:34:41;3.55;;;1.00;;
78799;SDS011;68148;55.328;86.106;2023-04-03T04:37:07;9.75;;;1.30;;
78799;SDS011;68148;55.328;86.106;2023-04-03T04:39:34;4.32;;;0.75;;
78799;SDS011;68148;55.328;86.106;2023-04-03T04:41:59;11.32;;;1.13;;
78799;SDS011;68148;55.328;86.106;2023-04-03T04:44:25;2.38;;;0.55;;
78799;SDS011;68148;55.328;86.106;2023-04-03T04:46:51;4.57;;;0.85;;
78799;SDS011;68148;55.328;86.106;2023-04-03T04:49:17;5.63;;;0.93;;
78799;SDS011;68148;55.328;86.106;2023-04-03T04:51:43;2.17;;;0.82;;
78799;SDS011;68148;55.328;86.106;2023-04-03T04:54:09;4.10;;;0.63;;
78799;SDS011;68148;55.328;86.106;2023-04-03T04:56:35;4.57;;;0.98;;
78799;SDS011;68148;55.328;86.106;2023-04-03T04:59:01;4.72;;;0.82;;
78799;SDS011;68148;55.328;86.106;2023-04-03T05:01:27;2.90;;;1.13;;
78799;SDS011;68148;55.328;86.106;2023-04-03T05:03:53;3.05;;;0.85;;
78799;SDS011;68148;55.328;86.106;2023-04-03T05:06:19;4.50;;;0.70;;
78799;SDS011;68148;55.328;86.106;2023-04-03T05:08:45;9.27;;;1.52;;
78799;SDS011;68148;55.328;86.106;2023-04-03T05:11:10;11.23;;;0.75;;
78799;SDS011;68148;55.328;86.106;2023-04-03T05:13:36;3.42;;;0.73;;
78799;SDS011;68148;55.328;86.106;2023-04-03T05:16:02;11.57;;;0.88;;
78799;SDS011;68148;55.328;86.106;2023-04-03T05:18:29;4.13;;;1.10;;
78799;SDS011;68148;55.328;86.106;2023-04-03T05:20:54;14.90;;;1.45;;
78799;SDS011;68148;55.328;86.106;2023-04-03T05:23:20;4.80;;;1.10;;
78799;SDS011;68148;55.328;86.106;2023-04-03T05:25:46;2.60;;;0.82;;
78799;SDS011;68148;55.328;86.106;2023-04-03T05:28:14;4.00;;;0.90;;
78799;SDS011;68148;55.328;86.106;2023-04-03T05:30:40;2.30;;;0.73;;
78799;SDS011;68148;55.328;86.106;2023-04-03T05:33:06;12.98;;;1.20;;
78799;SDS011;68148;55.328;86.106;2023-04-03T05:35:32;3.03;;;0.93;;
78799;SDS011;68148;55.328;86.106;2023-04-03T05:37:58;5.30;;;1.30;;
78799;SDS011;68148;55.328;86.106;2023-04-03T05:40:24;5.20;;;0.80;;
78799;SDS011;68148;55.328;86.106;2023-04-03T05:42:50;2.75;;;0.93;;
78799;SDS011;68148;55.328;86.106;2023-04-03T05:45:16;3.75;;;1.13;;
78799;SDS011;68148;55.328;86.106;2023-04-03T05:47:41;4.20;;;1.30;;
78799;SDS011;68148;55.328;86.106;2023-04-03T05:50:07;2.17;;;0.95;;
78799;SDS011;68148;55.328;86.106;2023-04-03T05:52:35;5.07;;;1.00;;
78799;SDS011;68148;55.328;86.106;2023-04-03T05:55:03;1.38;;;0.50;;
78799;SDS011;68148;55.328;86.106;2023-04-03T05:57:30;0.88;;;0.35;;
78799;SDS011;68148;55.328;86.106;2023-04-03T05:59:55;7.68;;;1.10;;
78799;SDS011;68148;55.328;86.106;2023-04-03T06:02:22;2.63;;;0.75;;
78799;SDS011;68148;55.328;86.106;2023-04-03T06:04:49;3.85;;;1.23;;
78799;SDS011;68148;55.328;86.106;2023-04-03T06:07:15;1.67;;;0.63;;
78799;SDS011;68148;55.328;86.106;2023-04-03T06:09:46;4.70;;;1.15;;
78799;SDS011;68148;55.328;86.106;2023-04-03T06:12:12;3.55;;;1.48;;
78799;SDS011;68148;55.328;86.106;2023-04-03T06:14:38;3.45;;;1.20;;
78799;SDS011;68148;55.328;86.106;2023-04-03T06:17:04;4.68;;;1.13;;
78799;SDS011;68148;55.328;86.106;2023-04-03T06:19:31;2.22;;;0.65;;
78799;SDS011;68148;55.328;86.106;2023-04-03T06:21:57;3.72;;;0.93;;
78799;SDS011;68148;55.328;86.106;2023-04-03T06:24:23;5.70;;;1.38;;
78799;SDS011;68148;55.328;86.106;2023-04-03T06:26:49;2.25;;;0.88;;
78799;SDS011;68148;55.328;86.106;2023-04-03T06:29:15;1.65;;;0.60;;
78799;SDS011;68148;55.328;86.106;2023-04-03T06:31:41;3.45;;;0.88;;
78799;SDS011;68148;55.328;86.106;2023-04-03T06:34:07;2.92;;;0.77;;
78799;SDS011;68148;55.328;86.106;2023-04-03T06:36:32;4.35;;;1.15;;
78799;SDS011;68148;55.328;86.106;2023-04-03T06:38:58;1.85;;;0.98;;
78799;SDS011;68148;55.328;86.106;2023-04-03T06:41:24;5.25;;;0.93;;
78799;SDS011;68148;55.328;86.106;2023-04-03T06:43:50;1.77;;;0.80;;
78799;SDS011;68148;55.328;86.106;2023-04-03T06:46:16;3.90;;;0.82;;
78799;SDS011;68148;55.328;86.106;2023-04-03T06:48:44;2.58;;;0.93;;
78799;SDS011;68148;55.328;86.106;2023-04-03T06:51:17;3.40;;;0.82;;
78799;SDS011;68148;55.328;86.106;2023-04-03T06:53:48;3.97;;;1.00;;
78799;SDS011;68148;55.328;86.106;2023-04-03T06:56:15;4.13;;;0.85;;
78799;SDS011;68148;55.328;86.106;2023-04-03T06:58:41;4.97;;;0.63;;
78799;SDS011;68148;55.328;86.106;2023-04-03T07:01:08;4.07;;;0.95;;
78799;SDS011;68148;55.328;86.106;2023-04-03T07:03:35;4.18;;;0.98;;
78799;SDS011;68148;55.328;86.106;2023-04-03T07:06:02;4.60;;;0.77;;
78799;SDS011;68148;55.328;86.106;2023-04-03T07:08:29;2.92;;;1.20;;
78799;SDS011;68148;55.328;86.106;2023-04-03T07:10:55;2.83;;;0.75;;
78799;SDS011;68148;55.328;86.106;2023-04-03T07:13:21;5.18;;;0.90;;
78799;SDS011;68148;55.328;86.106;2023-04-03T07:15:47;9.00;;;1.02;;
78799;SDS011;68148;55.328;86.106;2023-04-03T07:18:12;4.20;;;1.30;;
78799;SDS011;68148;55.328;86.106;2023-04-03T07:20:38;1.77;;;0.98;;
78799;SDS011;68148;55.328;86.106;2023-04-03T07:23:04;2.33;;;0.85;;
78799;SDS011;68148;55.328;86.106;2023-04-03T07:25:30;2.30;;;0.70;;
78799;SDS011;68148;55.328;86.106;2023-04-03T07:27:56;2.55;;;1.10;;
78799;SDS011;68148;55.328;86.106;2023-04-03T07:30:22;3.00;;;0.85;;
78799;SDS011;68148;55.328;86.106;2023-04-03T07:32:48;4.13;;;0.60;;
78799;SDS011;68148;55.328;86.106;2023-04-03T07:35:15;3.17;;;1.02;;
78799;SDS011;68148;55.328;86.106;2023-04-03T07:37:40;3.83;;;0.77;;
78799;SDS011;68148;55.328;86.106;2023-04-03T07:40:07;4.43;;;0.90;;
78799;SDS011;68148;55.328;86.106;2023-04-03T07:42:35;3.13;;;0.57;;
78799;SDS011;68148;55.328;86.106;2023-04-03T07:45:03;2.85;;;0.75;;
78799;SDS011;68148;55.328;86.106;2023-04-03T07:47:30;3.25;;;0.73;;
78799;SDS011;68148;55.328;86.106;2023-04-03T07:49:56;1.75;;;0.70;;
78799;SDS011;68148;55.328;86.106;2023-04-03T07:52:22;3.63;;;1.23;;
78799;SDS011;68148;55.328;86.106;2023-04-03T07:54:49;3.35;;;0.98;;
78799;SDS011;68148;55.328;86.106;2023-04-03T07:57:15;4.15;;;0.85;;
78799;SDS011;68148;55.328;86.106;2023-04-03T07:59:41;2.92;;;0.85;;
78799;SDS011;68148;55.328;86.106;2023-04-03T08:02:08;4.90;;;0.90;;
78799;SDS011;68148;55.328;86.106;2023-04-03T08:04:35;1.42;;;0.65;;
78799;SDS011;68148;55.328;86.106;2023-04-03T08:07:01;1.98;;;0.90;;
78799;SDS011;68148;55.328;86.106;2023-04-03T08:09:27;7.90;;;1.05;;
78799;SDS011;68148;55.328;86.106;2023-04-03T08:11:52;6.22;;;1.20;;
78799;SDS011;68148;55.328;86.106;2023-04-03T08:14:18;6.35;;;1.20;;
78799;SDS011;68148;55.328;86.106;2023-04-03T08:16:45;6.55;;;1.02;;
78799;SDS011;68148;55.328;86.106;2023-04-03T08:19:13;6.22;;;0.95;;
78799;SDS011;68148;55.328;86.106;2023-04-03T08:21:40;2.17;;;0.63;;
78799;SDS011;68148;55.328;86.106;2023-04-03T08:24:06;7.00;;;1.05;;
78799;SDS011;68148;55.328;86.106;2023-04-03T08:26:32;4.05;;;1.23;;
78799;SDS011;68148;55.328;86.106;2023-04-03T08:28:58;4.18;;;0.90;;
78799;SDS011;68148;55.328;86.106;2023-04-03T08:31:24;3.28;;;1.45;;
78799;SDS011;68148;55.328;86.106;2023-04-03T08:33:50;1.77;;;0.55;;
78799;SDS011;68148;55.328;86.106;2023-04-03T08:36:23;4.53;;;0.70;;
78799;SDS011;68148;55.328;86.106;2023-04-03T08:38:54;4.68;;;0.88;;
78799;SDS011;68148;55.328;86.106;2023-04-03T08:49:41;6.30;;;0.85;;
78799;SDS011;68148;55.328;86.106;2023-04-03T08:52:12;5.72;;;1.33;;
78799;SDS011;68148;55.328;86.106;2023-04-03T08:55:00;5.75;;;1.48;;
78799;SDS011;68148;55.328;86.106;2023-04-03T08:57:30;2.35;;;0.80;;
78799;SDS011;68148;55.328;86.106;2023-04-03T09:00:32;7.13;;;1.45;;
78799;SDS011;68148;55.328;86.106;2023-04-03T09:02:59;6.88;;;1.23;;
78799;SDS011;68148;55.328;86.106;2023-04-03T09:05:32;8.52;;;1.30;;
78799;SDS011;68148;55.328;86.106;2023-04-03T09:08:22;3.67;;;1.35;;
78799;SDS011;68148;55.328;86.106;2023-04-03T09:19:10;3.95;;;1.10;;
78799;SDS011;68148;55.328;86.106;2023-04-03T09:21:51;5.70;;;0.95;;
78799;SDS011;68148;55.328;86.106;2023-04-03T09:24:18;4.15;;;0.98;;
78799;SDS011;68148;55.328;86.106;2023-04-03T09:29:25;2.65;;;0.85;;
78799;SDS011;68148;55.328;86.106;2023-04-03T09:32:02;4.45;;;0.88;;
78799;SDS011;68148;55.328;86.106;2023-04-03T09:34:44;4.63;;;0.73;;
78799;SDS011;68148;55.328;86.106;2023-04-03T09:37:12;3.50;;;0.80;;
78799;SDS011;68148;55.328;86.106;2023-04-03T09:42:58;3.95;;;1.40;;
78799;SDS011;68148;55.328;86.106;2023-04-03T09:45:31;2.63;;;0.80;;
78799;SDS011;68148;55.328;86.106;2023-04-03T09:56:29;2.60;;;0.90;;
78799;SDS011;68148;55.328;86.106;2023-04-03T10:01:27;5.07;;;1.23;;
78799;SDS011;68148;55.328;86.106;2023-04-03T10:04:10;5.45;;;1.48;;
78799;SDS011;68148;55.328;86.106;2023-04-03T10:06:48;5.95;;;1.17;;
78799;SDS011;68148;55.328;86.106;2023-04-03T10:09:28;4.20;;;1.38;;
78799;SDS011;68148;55.328;86.106;2023-04-03T10:14:38;3.53;;;1.50;;
78799;SDS011;68148;55.328;86.106;2023-04-03T10:20:27;3.90;;;1.35;;
78799;SDS011;68148;55.328;86.106;2023-04-03T10:25:47;3.53;;;1.42;;
78799;SDS011;68148;55.328;86.106;2023-04-03T10:36:29;4.43;;;1.33;;
78799;SDS011;68148;55.328;86.106;2023-04-03T10:48:11;8.57;;;2.60;;
78799;SDS011;68148;55.328;86.106;2023-04-03T10:51:12;4.95;;;1.73;;
78799;SDS011;68148;55.328;86.106;2023-04-03T10:53:57;4.22;;;0.88;;
78799;SDS011;68148;55.328;86.106;2023-04-03T10:56:42;3.65;;;1.20;;
78799;SDS011;68148;55.328;86.106;2023-04-03T10:59:26;5.43;;;1.20;;
78799;SDS011;68148;55.328;86.106;2023-04-03T11:02:04;6.85;;;1.50;;
78799;SDS011;68148;55.328;86.106;2023-04-03T11:10:09;6.75;;;1.58;;
78799;SDS011;68148;55.328;86.106;2023-04-03T11:15:17;12.77;;;1.95;;
78799;SDS011;68148;55.328;86.106;2023-04-03T11:17:50;8.38;;;2.92;;
78799;SDS011;68148;55.328;86.106;2023-04-03T11:20:22;8.98;;;2.05;;
78799;SDS011;68148;55.328;86.106;2023-04-03T11:25:38;7.10;;;2.45;;
78799;SDS011;68148;55.328;86.106;2023-04-03T11:28:12;11.13;;;2.65;;
78799;SDS011;68148;55.328;86.106;2023-04-03T11:35:52;7.43;;;2.35;;
78799;SDS011;68148;55.328;86.106;2023-04-03T11:38:22;9.43;;;3.13;;
78799;SDS011;68148;55.328;86.106;2023-04-03T11:41:04;12.65;;;3.80;;
78799;SDS011;68148;55.328;86.106;2023-04-03T11:43:32;16.65;;;3.95;;
78799;SDS011;68148;55.328;86.106;2023-04-03T11:46:00;12.88;;;3.47;;
78799;SDS011;68148;55.328;86.106;2023-04-03T11:51:00;16.85;;;3.90;;
78799;SDS011;68148;55.328;86.106;2023-04-03T11:53:42;11.63;;;3.00;;
78799;SDS011;68148;55.328;86.106;2023-04-03T12:01:43;22.50;;;5.05;;
78799;SDS011;68148;55.328;86.106;2023-04-03T12:04:15;12.02;;;4.28;;
78799;SDS011;68148;55.328;86.106;2023-04-03T12:09:22;11.95;;;3.45;;
78799;SDS011;68148;55.328;86.106;2023-04-03T12:11:51;11.07;;;4.00;;
78799;SDS011;68148;55.328;86.106;2023-04-03T12:14:17;14.00;;;3.78;;
78799;SDS011;68148;55.328;86.106;2023-04-03T12:16:46;13.43;;;4.80;;
78799;SDS011;68148;55.328;86.106;2023-04-03T12:24:33;20.25;;;5.53;;
78799;SDS011;68148;55.328;86.106;2023-04-03T12:27:02;22.92;;;5.38;;
78799;SDS011;68148;55.328;86.106;2023-04-03T12:29:53;14.32;;;5.40;;
78799;SDS011;68148;55.328;86.106;2023-04-03T12:32:35;20.23;;;6.28;;
78799;SDS011;68148;55.328;86.106;2023-04-03T12:46:59;20.50;;;6.43;;
78799;SDS011;68148;55.328;86.106;2023-04-03T12:49:40;29.45;;;7.60;;
78799;SDS011;68148;55.328;86.106;2023-04-03T12:54:53;19.88;;;5.95;;
78799;SDS011;68148;55.328;86.106;2023-04-03T12:57:21;17.45;;;6.90;;
78799;SDS011;68148;55.328;86.106;2023-04-03T12:59:50;28.88;;;8.27;;
78799;SDS011;68148;55.328;86.106;2023-04-03T13:02:31;26.08;;;7.05;;
78799;SDS011;68148;55.328;86.106;2023-04-03T13:05:06;23.27;;;7.38;;
78799;SDS011;68148;55.328;86.106;2023-04-03T13:07:35;23.95;;;8.63;;
78799;SDS011;68148;55.328;86.106;2023-04-03T13:12:32;26.95;;;7.60;;
78799;SDS011;68148;55.328;86.106;2023-04-03T13:15:00;21.15;;;7.55;;
78799;SDS011;68148;55.328;86.106;2023-04-03T13:18:05;22.40;;;7.50;;
78799;SDS011;68148;55.328;86.106;2023-04-03T13:20:47;22.73;;;7.28;;
78799;SDS011;68148;55.328;86.106;2023-04-03T13:23:14;15.10;;;6.05;;
78799;SDS011;68148;55.328;86.106;2023-04-03T13:28:12;23.35;;;7.13;;
78799;SDS011;68148;55.328;86.106;2023-04-03T13:31:04;22.77;;;6.78;;
78799;SDS011;68148;55.328;86.106;2023-04-03T13:33:29;20.52;;;6.07;;
78799;SDS011;68148;55.328;86.106;2023-04-03T13:36:00;20.52;;;6.32;;
78799;SDS011;68148;55.328;86.106;2023-04-03T13:38:33;20.60;;;6.68;;
78799;SDS011;68148;55.328;86.106;2023-04-03T13:41:01;32.42;;;7.30;;
78799;SDS011;68148;55.328;86.106;2023-04-03T13:43:47;27.60;;;7.65;;
78799;SDS011;68148;55.328;86.106;2023-04-03T13:56:32;26.52;;;6.93;;
78799;SDS011;68148;55.328;86.106;2023-04-03T14:01:41;22.65;;;7.32;;
78799;SDS011;68148;55.328;86.106;2023-04-03T14:04:12;29.77;;;7.47;;
78799;SDS011;68148;55.328;86.106;2023-04-03T14:06:46;24.77;;;7.95;;
78799;SDS011;68148;55.328;86.106;2023-04-03T14:09:14;33.33;;;8.70;;
78799;SDS011;68148;55.328;86.106;2023-04-03T14:11:42;28.13;;;8.32;;
78799;SDS011;68148;55.328;86.106;2023-04-03T14:14:16;38.60;;;10.18;;
78799;SDS011;68148;55.328;86.106;2023-04-03T14:16:46;26.27;;;8.55;;
78799;SDS011;68148;55.328;86.106;2023-04-03T14:19:18;27.80;;;8.63;;
78799;SDS011;68148;55.328;86.106;2023-04-03T14:21:47;24.50;;;7.72;;
78799;SDS011;68148;55.328;86.106;2023-04-03T14:24:13;26.50;;;7.32;;
78799;SDS011;68148;55.328;86.106;2023-04-03T14:26:39;21.65;;;5.82;;
78799;SDS011;68148;55.328;86.106;2023-04-03T14:29:05;40.05;;;5.97;;
78799;SDS011;68148;55.328;86.106;2023-04-03T14:31:34;23.27;;;5.70;;
78799;SDS011;68148;55.328;86.106;2023-04-03T14:34:00;24.83;;;5.50;;
78799;SDS011;68148;55.328;86.106;2023-04-03T14:36:27;20.30;;;5.10;;
78799;SDS011;68148;55.328;86.106;2023-04-03T14:41:24;29.60;;;7.47;;
78799;SDS011;68148;55.328;86.106;2023-04-03T14:43:51;21.60;;;7.15;;
78799;SDS011;68148;55.328;86.106;2023-04-03T14:46:18;26.02;;;7.47;;
78799;SDS011;68148;55.328;86.106;2023-04-03T14:48:49;24.40;;;6.13;;
78799;SDS011;68148;55.328;86.106;2023-04-03T14:51:17;19.35;;;6.07;;
78799;SDS011;68148;55.328;86.106;2023-04-03T14:53:43;26.10;;;5.63;;
78799;SDS011;68148;55.328;86.106;2023-04-03T14:56:14;16.65;;;4.88;;
78799;SDS011;68148;55.328;86.106;2023-04-03T14:58:43;12.65;;;4.03;;
78799;SDS011;68148;55.328;86.106;2023-04-03T15:01:09;15.48;;;4.88;;
78799;SDS011;68148;55.328;86.106;2023-04-03T15:03:36;16.83;;;4.85;;
78799;SDS011;68148;55.328;86.106;2023-04-03T15:06:02;30.58;;;6.65;;
78799;SDS011;68148;55.328;86.106;2023-04-03T15:08:28;28.17;;;5.63;;
78799;SDS011;68148;55.328;86.106;2023-04-03T15:10:54;21.35;;;5.28;;
78799;SDS011;68148;55.328;86.106;2023-04-03T15:13:20;16.00;;;4.85;;
78799;SDS011;68148;55.328;86.106;2023-04-03T15:15:47;15.13;;;5.00;;
78799;SDS011;68148;55.328;86.106;2023-04-03T15:18:18;20.42;;;5.20;;
78799;SDS011;68148;55.328;86.106;2023-04-03T15:20:48;26.27;;;5.07;;
78799;SDS011;68148;55.328;86.106;2023-04-03T15:23:15;11.80;;;4.22;;
78799;SDS011;68148;55.328;86.106;2023-04-03T15:25:46;19.05;;;4.03;;
78799;SDS011;68148;55.328;86.106;2023-04-03T15:31:17;17.20;;;4.00;;
78799;SDS011;68148;55.328;86.106;2023-04-03T15:33:45;14.70;;;4.20;;
78799;SDS011;68148;55.328;86.106;2023-04-03T15:36:14;13.10;;;4.07;;
78799;SDS011;68148;55.328;86.106;2023-04-03T15:38:40;19.38;;;4.72;;
78799;SDS011;68148;55.328;86.106;2023-04-03T15:41:06;17.75;;;4.35;;
78799;SDS011;68148;55.328;86.106;2023-04-03T15:43:35;16.17;;;4.18;;
78799;SDS011;68148;55.328;86.106;2023-04-03T15:46:01;12.05;;;3.70;;
78799;SDS011;68148;55.328;86.106;2023-04-03T15:48:31;12.98;;;4.03;;
78799;SDS011;68148;55.328;86.106;2023-04-03T15:50:57;14.57;;;4.03;;
78799;SDS011;68148;55.328;86.106;2023-04-03T15:53:23;12.93;;;3.25;;
78799;SDS011;68148;55.328;86.106;2023-04-03T15:55:49;10.38;;;3.25;;
78799;SDS011;68148;55.328;86.106;2023-04-03T15:58:16;18.00;;;3.00;;
78799;SDS011;68148;55.328;86.106;2023-04-03T16:00:42;15.13;;;3.42;;
78799;SDS011;68148;55.328;86.106;2023-04-03T16:03:09;13.98;;;3.38;;
78799;SDS011;68148;55.328;86.106;2023-04-03T16:05:38;10.50;;;3.05;;
78799;SDS011;68148;55.328;86.106;2023-04-03T16:08:06;10.40;;;2.47;;
78799;SDS011;68148;55.328;86.106;2023-04-03T16:10:41;15.70;;;4.13;;
78799;SDS011;68148;55.328;86.106;2023-04-03T16:13:09;10.27;;;2.90;;
78799;SDS011;68148;55.328;86.106;2023-04-03T16:15:35;17.33;;;4.25;;
78799;SDS011;68148;55.328;86.106;2023-04-03T16:18:01;18.02;;;3.90;;
78799;SDS011;68148;55.328;86.106;2023-04-03T16:20:27;10.75;;;3.50;;
78799;SDS011;68148;55.328;86.106;2023-04-03T16:22:53;13.65;;;3.40;;
78799;SDS011;68148;55.328;86.106;2023-04-03T16:25:23;12.32;;;3.58;;
78799;SDS011;68148;55.328;86.106;2023-04-03T16:27:49;10.50;;;3.60;;
78799;SDS011;68148;55.328;86.106;2023-04-03T16:30:15;22.45;;;5.60;;
78799;SDS011;68148;55.328;86.106;2023-04-03T16:32:41;12.00;;;3.92;;
78799;SDS011;68148;55.328;86.106;2023-04-03T16:35:07;16.00;;;3.58;;
78799;SDS011;68148;55.328;86.106;2023-04-03T16:37:34;12.07;;;3.15;;
78799;SDS011;68148;55.328;86.106;2023-04-03T16:40:00;12.10;;;3.05;;
78799;SDS011;68148;55.328;86.106;2023-04-03T16:46:02;8.05;;;2.55;;
78799;SDS011;68148;55.328;86.106;2023-04-03T16:48:30;9.43;;;2.67;;
78799;SDS011;68148;55.328;86.106;2023-04-03T16:51:00;16.73;;;2.92;;
78799;SDS011;68148;55.328;86.106;2023-04-03T16:53:26;7.03;;;2.28;;
78799;SDS011;68148;55.328;86.106;2023-04-03T16:55:56;17.42;;;3.58;;
78799;SDS011;68148;55.328;86.106;2023-04-03T16:58:23;23.30;;;3.28;;
78799;SDS011;68148;55.328;86.106;2023-04-03T17:00:49;9.95;;;1.90;;
78799;SDS011;68148;55.328;86.106;2023-04-03T17:03:15;17.92;;;3.15;;
78799;SDS011;68148;55.328;86.106;2023-04-03T17:05:41;9.60;;;2.13;;
78799;SDS011;68148;55.328;86.106;2023-04-03T17:08:07;8.25;;;2.40;;
78799;SDS011;68148;55.328;86.106;2023-04-03T17:10:32;10.10;;;2.50;;
78799;SDS011;68148;55.328;86.106;2023-04-03T17:12:59;10.90;;;2.33;;
78799;SDS011;68148;55.328;86.106;2023-04-03T17:15:24;7.13;;;2.35;;
78799;SDS011;68148;55.328;86.106;2023-04-03T17:17:51;11.60;;;2.40;;